Indi — CQIG3 — position and weather

sailwx.info

Track history (hours):
 
Tides and Currents Weather Stations Pressure Air Temp Water Temp Dewpoint Dewpoint Depression Visibility Wind Speed Wind Dir Waves Ship Positions

Indi

Last reported at 2017-Sep-20 09:00 UTC. Time now 2017-Sep-22 01:15 UTC.
Position N 50°25' W 006°07'.

Length 89 m; draft 3.3 m.

Type: Cargo ship. MMSI: 255805951.

Date/timePositionNaut miles runAvg speedWind from/ knotsBaromVisibWave heightAir tempDewpointWater temp
2017-Sep-20 09:00N 50°25' W 006°07'910.9
2017-Sep-20 08:11N 50°31' W 005°57'210.8
2017-Sep-20 08:00N 50°33' W 005°54'510.7
2017-Sep-20 07:30N 50°36' W 005°48'510.3
2017-Sep-20 07:00N 50°40' W 005°42'5 9.9
2017-Sep-20 06:30N 50°43' W 005°37'5 9.7
2017-Sep-20 06:00N 50°46' W 005°31'5 9.3
2017-Sep-20 05:30N 50°50' W 005°26'5 9.2
2017-Sep-20 05:00N 50°53' W 005°20'5 9.1
2017-Sep-20 04:30N 50°56' W 005°15'5 9.0
2017-Sep-20 04:00N 50°59' W 005°10'5 9.0
2017-Sep-20 03:30N 51°02' W 005°05'5 9.1
2017-Sep-20 03:00N 51°05' W 004°60'5 9.3
2017-Sep-20 02:30N 51°08' W 004°54'5 9.5
2017-Sep-20 02:00N 51°12' W 004°49'5 9.4
2017-Sep-20 01:30N 51°15' W 004°43'5 9.9
2017-Sep-20 01:00N 51°16' W 004°35'510.7
2017-Sep-20 00:30N 51°16' W 004°27'611.2
2017-Sep-20 00:00N 51°17' W 004°18'611.8
2017-Sep-19 23:30N 51°18' W 004°08'612.4
2017-Sep-19 23:00N 51°18' W 003°58'814.1
2017-Sep-19 22:24N 51°19' W 003°45'1414.8
2017-Sep-19 21:27N 51°21' W 003°23'613.8
2017-Sep-19 20:59N 51°23' W 003°13'714.0
2017-Sep-19 20:30N 51°26' W 003°04'713.2
2017-Sep-19 20:00N 51°32' W 002°58'2 3.0
2017-Sep-19 19:30N 51°33' W 002°59'0 0.7
2017-Sep-19 18:59N 51°34' W 002°59'0 0.0
2017-Sep-19 18:29N 51°34' W 002°59'0 0.0
2017-Sep-19 17:59N 51°34' W 002°59'0 0.0
2017-Sep-19 17:29N 51°34' W 002°59'0 0.0
2017-Sep-19 16:59N 51°34' W 002°59'0 0.0
2017-Sep-19 16:29N 51°34' W 002°59'0 0.0
2017-Sep-19 15:59N 51°34' W 002°59'0 0.0
2017-Sep-19 15:29N 51°33' W 002°59'0 0.0
2017-Sep-19 14:59N 51°34' W 002°59'0 0.0
2017-Sep-19 14:29N 51°34' W 002°59'0 0.0
2017-Sep-19 13:59N 51°34' W 002°59'0 0.0
2017-Sep-19 13:29N 51°34' W 002°59'0 0.0
2017-Sep-19 12:59N 51°34' W 002°59'0 0.0
2017-Sep-19 12:29N 51°34' W 002°59'0 0.0
2017-Sep-19 11:56N 51°34' W 002°59'0 0.0
2017-Sep-19 11:29N 51°34' W 002°59'0 0.0
2017-Sep-19 10:59N 51°34' W 002°59'0 0.0
2017-Sep-19 10:29N 51°34' W 002°59'0 0.0
2017-Sep-19 09:59N 51°34' W 002°59'0 0.0
2017-Sep-19 09:29N 51°34' W 002°59'0 0.0
2017-Sep-19 08:59N 51°34' W 002°59'0 0.0
2017-Sep-19 08:29N 51°34' W 002°59'0 0.0
2017-Sep-19 07:59N 51°34' W 002°59'0 0.1
2017-Sep-19 07:29N 51°33' W 002°59'0 0.1
2017-Sep-19 06:59N 51°34' W 002°59'0 0.0
2017-Sep-19 06:29N 51°34' W 002°59'0 0.0
2017-Sep-19 05:59N 51°34' W 002°59'0 0.0
2017-Sep-19 05:29N 51°34' W 002°59'0 0.0
2017-Sep-19 04:59N 51°34' W 002°59'0 0.0
2017-Sep-19 04:29N 51°34' W 002°59'0 0.0
2017-Sep-19 03:59N 51°34' W 002°59'0 0.0
2017-Sep-19 03:29N 51°34' W 002°59'0 0.0
2017-Sep-19 02:59N 51°34' W 002°59'0 0.0
2017-Sep-19 02:29N 51°34' W 002°59'0 0.0
2017-Sep-19 01:59N 51°34' W 002°59'0 0.0
2017-Sep-19 01:29N 51°34' W 002°59'0 0.0
2017-Sep-19 00:59N 51°34' W 002°59'0 0.0
2017-Sep-19 00:29N 51°34' W 002°59'0 0.0
2017-Sep-18 23:59N 51°34' W 002°59'0 0.0
2017-Sep-18 23:29N 51°34' W 002°59'0 0.0
2017-Sep-18 22:56N 51°34' W 002°59'0 0.0
2017-Sep-18 22:29N 51°34' W 002°59'0 0.0
2017-Sep-18 21:59N 51°34' W 002°59'0 0.0
2017-Sep-18 21:29N 51°34' W 002°59'0 0.0
2017-Sep-18 20:56N 51°34' W 002°59'0 0.0
2017-Sep-18 20:29N 51°34' W 002°59'0 0.0
2017-Sep-18 19:59N 51°34' W 002°59'0 0.0
2017-Sep-18 19:29N 51°34' W 002°59'0 0.0
2017-Sep-18 18:59N 51°34' W 002°59'0 0.0
2017-Sep-18 18:29N 51°34' W 002°59'0 0.0
2017-Sep-18 17:59N 51°34' W 002°59'0 0.0
2017-Sep-18 17:29N 51°34' W 002°59'0 0.0
2017-Sep-18 16:59N 51°34' W 002°59'0 0.0
2017-Sep-18 16:29N 51°34' W 002°59'0 0.0
2017-Sep-18 15:59N 51°34' W 002°59'0 0.0
2017-Sep-18 15:26N 51°34' W 002°59'0 0.0
2017-Sep-18 14:59N 51°34' W 002°59'0 0.0
2017-Sep-18 14:26N 51°34' W 002°59'0 0.0
2017-Sep-18 13:56N 51°34' W 002°59'0 0.0
2017-Sep-18 13:26N 51°34' W 002°59'0 0.0
2017-Sep-18 12:59N 51°34' W 002°59'0 0.0
2017-Sep-18 12:29N 51°34' W 002°59'0 0.0
2017-Sep-18 11:59N 51°34' W 002°59'0 0.0
2017-Sep-18 11:29N 51°34' W 002°59'0 0.0
2017-Sep-18 10:59N 51°34' W 002°59'0 0.0
2017-Sep-18 10:29N 51°34' W 002°59'0 0.0
2017-Sep-18 09:59N 51°34' W 002°59'0 0.0
2017-Sep-18 09:29N 51°34' W 002°59'0 0.0
2017-Sep-18 08:59N 51°34' W 002°59'0 0.0
2017-Sep-18 08:29N 51°34' W 002°59'0 0.0
2017-Sep-18 07:59N 51°34' W 002°59'0 0.0
2017-Sep-18 07:29N 51°34' W 002°59'0 0.0
2017-Sep-18 06:59N 51°34' W 002°59'0 0.0
2017-Sep-18 06:29N 51°34' W 002°59'0 0.0
2017-Sep-18 05:59N 51°34' W 002°59'0 0.0
2017-Sep-18 05:29N 51°34' W 002°59'0 0.0
2017-Sep-18 04:56N 51°34' W 002°59'0 0.2
2017-Sep-18 04:30N 51°33' W 002°59'0 0.8
2017-Sep-18 04:01N 51°33' W 002°59'1 1.7
2017-Sep-18 03:31N 51°32' W 002°59'4 7.8
2017-Sep-18 03:01N 51°29' W 003°01'611.9
2017-Sep-18 02:30N 51°24' W 003°07'7 5.4
2017-Sep-18 01:09N 51°21' W 003°18'18 7.9
2017-Sep-17 22:51N 51°22' W 003°47'25 9.1
2017-Sep-17 20:07N 51°24' W 004°26'1 8.9
2017-Sep-17 20:00N 51°24' W 004°28'5 8.4
2017-Sep-17 19:24N 51°25' W 004°36'4 8.3
2017-Sep-17 18:57N 51°26' W 004°42'4 8.6
2017-Sep-17 18:30N 51°27' W 004°48'4 8.8
2017-Sep-17 18:01N 51°28' W 004°54'4 8.6
2017-Sep-17 17:31N 51°30' W 005°01'4 8.8
2017-Sep-17 17:01N 51°31' W 005°08'5 9.0
2017-Sep-17 16:30N 51°32' W 005°15'5 9.3
2017-Sep-17 16:01N 51°34' W 005°22'5 9.7
2017-Sep-17 15:31N 51°35' W 005°29'510.0
2017-Sep-17 15:00N 51°36' W 005°37'27 8.2
2017-Sep-17 11:40N 52°03' W 005°45'212.6
2017-Sep-17 11:30N 52°05' W 005°44'612.5
2017-Sep-17 11:00N 52°11' W 005°40'612.3
2017-Sep-17 10:30N 52°17' W 005°37'94 9.0
2017-Sep-17 00:09N 53°33' W 004°07'211.8
2017-Sep-16 23:58N 53°33' W 004°04'511.7
2017-Sep-16 23:30N 53°33' W 003°54'611.8
2017-Sep-16 23:00N 53°33' W 003°45'611.6
2017-Sep-16 22:31N 53°33' W 003°35'611.6
2017-Sep-16 22:00N 53°33' W 003°25'611.1
2017-Sep-16 21:30N 53°31' W 003°16'5 9.8
2017-Sep-16 21:00N 53°31' W 003°08'510.3
2017-Sep-16 20:30N 53°27' W 003°02'5 9.4
2017-Sep-16 20:00N 53°23' W 002°60'4 7.4
2017-Sep-16 19:30N 53°21' W 002°55'0 0.3
2017-Sep-16 19:00N 53°21' W 002°54'0 0.0
2017-Sep-16 18:30N 53°21' W 002°54'0 0.0
2017-Sep-16 18:00N 53°21' W 002°54'0 0.0
2017-Sep-16 17:30N 53°21' W 002°54'0 0.0
2017-Sep-16 17:00N 53°21' W 002°54'0 0.0
2017-Sep-16 16:30N 53°21' W 002°54'0 0.0
2017-Sep-16 16:00N 53°21' W 002°54'0 0.0
2017-Sep-16 15:27N 53°21' W 002°54'0 0.0
2017-Sep-16 14:57N 53°21' W 002°54'0 0.0
2017-Sep-16 14:27N 53°21' W 002°54'0 0.0
2017-Sep-16 14:00N 53°21' W 002°54'0 0.0
2017-Sep-16 13:30N 53°21' W 002°54'0 0.0
2017-Sep-16 12:57N 53°21' W 002°54'0 0.0
2017-Sep-16 12:30N 53°21' W 002°54'0 0.0
2017-Sep-16 12:00N 53°21' W 002°54'0 0.0
2017-Sep-16 11:30N 53°21' W 002°54'0 0.0
2017-Sep-16 11:00N 53°21' W 002°54'0 0.1
2017-Sep-16 10:27N 53°21' W 002°54'0 0.1
2017-Sep-16 09:57N 53°21' W 002°54'0 0.0
2017-Sep-16 09:30N 53°21' W 002°54'0 0.0
2017-Sep-16 09:00N 53°21' W 002°54'0 0.0
2017-Sep-16 08:30N 53°21' W 002°54'0 0.0
2017-Sep-16 08:00N 53°21' W 002°54'0 0.0
2017-Sep-16 07:30N 53°21' W 002°54'0 0.0
2017-Sep-16 07:00N 53°21' W 002°54'0 0.0
2017-Sep-16 06:30N 53°21' W 002°54'0 0.0
2017-Sep-16 05:51N 53°21' W 002°54'0 0.0
2017-Sep-16 05:27N 53°21' W 002°54'0 0.0
2017-Sep-16 05:00N 53°21' W 002°54'0 0.0
2017-Sep-16 04:27N 53°21' W 002°54'0 0.0
2017-Sep-16 03:51N 53°21' W 002°54'0 0.0
2017-Sep-16 03:30N 53°21' W 002°54'0 0.0
2017-Sep-16 03:00N 53°21' W 002°54'0 0.0
2017-Sep-16 02:27N 53°21' W 002°54'0 0.0
2017-Sep-16 02:00N 53°21' W 002°54'0 0.0
2017-Sep-16 01:30N 53°21' W 002°54'0 0.0
2017-Sep-16 01:00N 53°21' W 002°54'0 0.0
2017-Sep-16 00:30N 53°21' W 002°54'0 0.0
2017-Sep-16 00:00N 53°21' W 002°54'0 0.0
2017-Sep-15 23:30N 53°21' W 002°54'0 0.0
2017-Sep-15 23:00N 53°21' W 002°54'0 0.0
2017-Sep-15 22:30N 53°21' W 002°54'0 0.0
2017-Sep-15 21:57N 53°21' W 002°54'0 0.0
2017-Sep-15 21:30N 53°21' W 002°54'0 0.0
2017-Sep-15 21:00N 53°21' W 002°54'0 0.0
2017-Sep-15 20:24N 53°21' W 002°54'0 0.0
2017-Sep-15 20:00N 53°21' W 002°54'0 0.0
2017-Sep-15 19:30N 53°21' W 002°54'0 0.0
2017-Sep-15 19:00N 53°21' W 002°54'0 0.0
2017-Sep-15 18:27N 53°21' W 002°54'0 0.0
2017-Sep-15 17:57N 53°21' W 002°54'0 0.0
2017-Sep-15 17:21N 53°21' W 002°54'0 0.0
2017-Sep-15 17:00N 53°21' W 002°54'0 0.0
2017-Sep-15 16:30N 53°21' W 002°54'0 0.0
2017-Sep-15 16:00N 53°21' W 002°54'0 0.0
2017-Sep-15 15:30N 53°21' W 002°54'0 0.0
2017-Sep-15 15:00N 53°21' W 002°54'0 0.0
2017-Sep-15 14:30N 53°21' W 002°54'0 0.0
2017-Sep-15 13:57N 53°21' W 002°54'0 0.0
2017-Sep-15 13:21N 53°21' W 002°54'0 0.0
2017-Sep-15 13:00N 53°21' W 002°54'0 0.0
2017-Sep-15 12:27N 53°21' W 002°54'0 0.0
2017-Sep-15 11:57N 53°21' W 002°54'0 0.0
2017-Sep-15 11:30N 53°21' W 002°54'0 0.0
2017-Sep-15 10:57N 53°21' W 002°54'0 0.0
2017-Sep-15 10:27N 53°21' W 002°54'0 0.0
2017-Sep-15 10:00N 53°21' W 002°54'0 0.0
2017-Sep-15 09:27N 53°21' W 002°54'0 0.0
2017-Sep-15 08:57N 53°21' W 002°54'0 0.0
2017-Sep-15 08:30N 53°21' W 002°54'0 0.0
2017-Sep-15 08:00N 53°21' W 002°54'0 0.0
2017-Sep-15 07:30N 53°21' W 002°54'0 0.0
2017-Sep-15 06:54N 53°21' W 002°54'0 0.0
2017-Sep-15 06:30N 53°21' W 002°54'0 0.0
2017-Sep-15 06:00N 53°21' W 002°54'0 0.0
2017-Sep-15 05:30N 53°21' W 002°54'0 0.0
2017-Sep-15 05:00N 53°21' W 002°54'0 0.0
2017-Sep-15 04:27N 53°21' W 002°54'0 0.0
2017-Sep-15 04:00N 53°21' W 002°54'0 0.0
2017-Sep-15 03:30N 53°21' W 002°54'0 0.0
2017-Sep-15 03:00N 53°21' W 002°54'0 0.0
2017-Sep-15 02:27N 53°21' W 002°54'0 0.0
2017-Sep-15 02:00N 53°21' W 002°54'0 0.0
2017-Sep-15 01:30N 53°21' W 002°54'0 0.0
2017-Sep-15 01:00N 53°21' W 002°54'0 0.0
2017-Sep-15 00:27N 53°21' W 002°54'0 0.0
2017-Sep-15 00:00N 53°21' W 002°54'0 0.0
2017-Sep-14 23:30N 53°21' W 002°54'0 0.0
2017-Sep-14 23:00N 53°21' W 002°54'0 0.0
2017-Sep-14 22:30N 53°21' W 002°54'0 0.0
2017-Sep-14 21:57N 53°21' W 002°54'0 0.0
2017-Sep-14 21:30N 53°21' W 002°54'0 0.0
2017-Sep-14 20:57N 53°21' W 002°54'0 0.0
2017-Sep-14 20:27N 53°21' W 002°54'0 0.0
2017-Sep-14 20:00N 53°21' W 002°54'0 0.0
2017-Sep-14 19:27N 53°21' W 002°54'0 0.0
2017-Sep-14 19:00N 53°21' W 002°54'0 0.0
2017-Sep-14 18:30N 53°21' W 002°54'0 0.0
2017-Sep-14 18:00N 53°21' W 002°54'1 1.5
2017-Sep-14 17:30N 53°21' W 002°55'3 5.1
2017-Sep-14 17:00N 53°23' W 002°59'1 1.5
2017-Sep-14 16:29N 53°22' W 002°58'0 1.0
2017-Sep-14 16:00N 53°21' W 002°58'2 3.8
2017-Sep-14 15:30N 53°20' W 002°57'1 1.4
2017-Sep-14 15:00N 53°19' W 002°56'3 6.1
2017-Sep-14 14:30N 53°17' W 002°52'3 6.1
2017-Sep-14 14:00N 53°18' W 002°47'3 5.9
2017-Sep-14 13:30N 53°20' W 002°45'0 0.1
2017-Sep-14 12:59N 53°20' W 002°45'0 0.0
2017-Sep-14 12:29N 53°20' W 002°45'0 0.0
2017-Sep-14 11:59N 53°20' W 002°45'0 0.0
2017-Sep-14 11:29N 53°20' W 002°45'0 0.0
2017-Sep-14 10:59N 53°20' W 002°45'0 0.0
2017-Sep-14 10:29N 53°20' W 002°45'0 0.0
2017-Sep-14 09:59N 53°20' W 002°45'0 0.0
2017-Sep-14 09:29N 53°20' W 002°45'0 0.0
2017-Sep-14 08:59N 53°20' W 002°45'0 0.0
2017-Sep-14 08:29N 53°20' W 002°45'0 0.0
2017-Sep-14 07:59N 53°20' W 002°45'0 0.0
2017-Sep-14 07:29N 53°20' W 002°45'0 0.0
2017-Sep-14 06:59N 53°20' W 002°45'0 0.0
2017-Sep-14 06:29N 53°20' W 002°45'0 0.0
2017-Sep-14 05:59N 53°20' W 002°45'0 0.0
2017-Sep-14 05:29N 53°20' W 002°45'0 0.0
2017-Sep-14 04:56N 53°20' W 002°45'0 0.0
2017-Sep-14 04:26N 53°20' W 002°45'0 0.0
2017-Sep-14 03:59N 53°20' W 002°45'0 0.0
2017-Sep-14 03:23N 53°20' W 002°45'0 0.0
2017-Sep-14 02:56N 53°20' W 002°45'0 0.0
2017-Sep-14 02:29N 53°20' W 002°45'0 0.0
2017-Sep-14 01:59N 53°20' W 002°45'0 0.0
2017-Sep-14 01:26N 53°20' W 002°45'0 0.0
2017-Sep-14 00:59N 53°20' W 002°45'0 0.0
2017-Sep-14 00:29N 53°20' W 002°45'0 0.0
2017-Sep-13 23:59N 53°20' W 002°45'0 0.0
2017-Sep-13 23:23N 53°20' W 002°45'0 0.0
2017-Sep-13 22:56N 53°20' W 002°45'0 0.0
2017-Sep-13 22:29N 53°20' W 002°45'0 0.0
2017-Sep-13 21:56N 53°20' W 002°45'0 0.0
2017-Sep-13 21:26N 53°20' W 002°45'0 0.0
2017-Sep-13 20:59N 53°20' W 002°45'0 0.0
2017-Sep-13 20:29N 53°20' W 002°45'0 0.0
2017-Sep-13 19:59N 53°20' W 002°45'0 0.0
2017-Sep-13 19:29N 53°20' W 002°45'0 0.0
2017-Sep-13 18:53N 53°20' W 002°45'0 0.0
2017-Sep-13 18:29N 53°20' W 002°45'0 0.0
2017-Sep-13 17:59N 53°20' W 002°45'0 0.0
2017-Sep-13 17:29N 53°20' W 002°45'0 0.0
2017-Sep-13 16:56N 53°20' W 002°45'0 0.0
2017-Sep-13 16:29N 53°20' W 002°45'0 0.0
2017-Sep-13 15:59N 53°20' W 002°45'0 0.0
2017-Sep-13 15:29N 53°20' W 002°45'0 0.0
2017-Sep-13 14:59N 53°20' W 002°45'0 0.0
2017-Sep-13 14:23N 53°20' W 002°45'0 0.0
2017-Sep-13 13:59N 53°20' W 002°45'0 0.0
2017-Sep-13 13:29N 53°20' W 002°45'0 0.0
2017-Sep-13 12:59N 53°20' W 002°45'0 0.0
2017-Sep-13 12:23N 53°20' W 002°45'0 0.0
2017-Sep-13 11:59N 53°20' W 002°45'0 0.0
2017-Sep-13 11:29N 53°20' W 002°45'0 0.0
2017-Sep-13 10:59N 53°20' W 002°45'0 0.0
2017-Sep-13 10:29N 53°20' W 002°45'0 0.0
2017-Sep-13 09:59N 53°20' W 002°45'0 0.0
2017-Sep-13 09:23N 53°20' W 002°45'0 0.0
2017-Sep-13 08:59N 53°20' W 002°45'0 0.0
2017-Sep-13 08:29N 53°20' W 002°45'0 0.0
2017-Sep-13 07:59N 53°20' W 002°45'0 0.0
2017-Sep-13 07:29N 53°20' W 002°45'0 0.0
2017-Sep-13 06:53N 53°20' W 002°45'0 0.0
2017-Sep-13 06:29N 53°20' W 002°45'0 0.0
2017-Sep-13 05:59N 53°20' W 002°45'0 0.0
2017-Sep-13 05:29N 53°20' W 002°45'0 0.0
2017-Sep-13 04:59N 53°20' W 002°45'0 0.0
2017-Sep-13 04:29N 53°20' W 002°45'0 0.0
2017-Sep-13 03:59N 53°20' W 002°45'0 0.0
2017-Sep-13 03:26N 53°20' W 002°45'0 0.0
2017-Sep-13 02:59N 53°20' W 002°45'0 0.0
2017-Sep-13 02:29N 53°20' W 002°45'0 0.0
2017-Sep-13 01:59N 53°20' W 002°45'0 0.0
2017-Sep-13 01:29N 53°20' W 002°45'0 0.0
2017-Sep-13 00:59N 53°20' W 002°45'0 0.0
2017-Sep-13 00:29N 53°20' W 002°45'0 0.0
2017-Sep-12 23:59N 53°20' W 002°45'0 0.0
2017-Sep-12 23:29N 53°20' W 002°45'0 0.0
2017-Sep-12 22:59N 53°20' W 002°45'0 0.0
2017-Sep-12 22:29N 53°20' W 002°45'0 0.0
2017-Sep-12 21:59N 53°20' W 002°45'0 0.0
2017-Sep-12 21:29N 53°20' W 002°45'0 0.0
2017-Sep-12 20:59N 53°20' W 002°45'0 0.0
2017-Sep-12 20:29N 53°20' W 002°45'0 0.0
2017-Sep-12 19:56N 53°20' W 002°45'0 0.0
2017-Sep-12 19:29N 53°20' W 002°45'0 0.0
2017-Sep-12 18:59N 53°20' W 002°45'0 0.0
2017-Sep-12 18:29N 53°20' W 002°45'0 0.8
2017-Sep-12 18:00N 53°20' W 002°46'3 5.9
2017-Sep-12 17:30N 53°18' W 002°48'3 6.2
2017-Sep-12 17:00N 53°17' W 002°53'3 5.9
2017-Sep-12 16:30N 53°19' W 002°57'1 1.8
2017-Sep-12 16:00N 53°20' W 002°57'4 7.0
2017-Sep-12 15:30N 53°23' W 002°60'5 9.9
2017-Sep-12 15:00N 53°28' W 003°03'510.5
2017-Sep-12 14:31N 53°32' W 003°09'510.8
2017-Sep-12 14:00N 53°31' W 003°18'5 9.6
2017-Sep-12 13:30N 53°31' W 003°26'611.4
2017-Sep-12 13:00N 53°30' W 003°36'612.1
2017-Sep-12 12:30N 53°30' W 003°46'612.3
2017-Sep-12 12:00N 53°29' W 003°56'0 0.2
2017-Sep-12 11:30N 53°29' W 003°56'1 2.0
2017-Sep-12 11:00N 53°29' W 003°54'1 2.2
2017-Sep-12 10:30N 53°29' W 003°53'1 2.8
2017-Sep-12 10:00N 53°29' W 003°50'0 0.8
2017-Sep-12 09:30N 53°29' W 003°51'3 6.3
2017-Sep-12 09:00N 53°29' W 003°56'2 4.8
2017-Sep-12 08:30N 53°28' W 004°00'2 3.1
2017-Sep-12 08:00N 53°28' W 003°57'2 4.1
2017-Sep-12 07:30N 53°29' W 003°54'2 4.2
2017-Sep-12 07:00N 53°29' W 003°51'1 1.9
2017-Sep-12 06:30N 53°30' W 003°49'4 7.3
2017-Sep-12 06:01N 53°29' W 003°55'4 8.8
2017-Sep-12 05:30N 53°29' W 004°03'1 1.8
2017-Sep-12 04:40N 53°28' W 004°05'1 4.7
2017-Sep-12 04:30N 53°28' W 004°04'2 4.5
2017-Sep-12 04:01N 53°28' W 003°60'2 4.3
2017-Sep-12 03:30N 53°29' W 003°56'2 3.9
2017-Sep-12 03:00N 53°29' W 003°53'2 3.5
2017-Sep-12 02:30N 53°29' W 003°50'1 1.8
2017-Sep-12 02:00N 53°30' W 003°50'3 6.9
2017-Sep-12 01:30N 53°30' W 003°55'4 7.5
2017-Sep-12 01:00N 53°30' W 004°02'96 7.2
2017-Sep-11 11:39N 52°12' W 005°35'211.2
2017-Sep-11 11:27N 52°10' W 005°37'511.6
2017-Sep-11 10:59N 52°07' W 005°44'511.4
2017-Sep-11 10:31N 52°03' W 005°50'611.3
2017-Sep-11 10:00N 51°58' W 005°55'510.7
2017-Sep-11 09:29N 51°54' W 006°00'22 3.8
2017-Sep-11 03:42N 51°34' W 005°46'1 4.6
2017-Sep-11 03:30N 51°33' W 005°44'2 4.8
2017-Sep-11 03:00N 51°32' W 005°41'2 5.0
2017-Sep-11 02:30N 51°31' W 005°37'3 5.7
2017-Sep-11 02:01N 51°29' W 005°34'3 6.7
2017-Sep-11 01:30N 51°27' W 005°37'5 9.1
2017-Sep-11 01:00N 51°24' W 005°43'  
Track history (hours):
 
Tides and Currents Weather Stations Pressure Air Temp Water Temp Dewpoint Dewpoint Depression Visibility Wind Speed Wind Dir Waves Ship Positions

Indi

Last reported at 2017-Sep-20 09:00 UTC. Time now 2017-Sep-22 01:15 UTC.
Position N 50°25' W 006°07'.

Length 89 m; draft 3.3 m.

Type: Cargo ship. MMSI: 255805951.

Date/timePositionNaut miles runAvg speedWind from/ knotsBaromVisibWave heightAir tempDewpointWater temp
2017-Sep-20 09:00N 50°25' W 006°07'910.9
2017-Sep-20 08:11N 50°31' W 005°57'210.8
2017-Sep-20 08:00N 50°33' W 005°54'510.7
2017-Sep-20 07:30N 50°36' W 005°48'510.3
2017-Sep-20 07:00N 50°40' W 005°42'5 9.9
2017-Sep-20 06:30N 50°43' W 005°37'5 9.7
2017-Sep-20 06:00N 50°46' W 005°31'5 9.3
2017-Sep-20 05:30N 50°50' W 005°26'5 9.2
2017-Sep-20 05:00N 50°53' W 005°20'5 9.1
2017-Sep-20 04:30N 50°56' W 005°15'5 9.0
2017-Sep-20 04:00N 50°59' W 005°10'5 9.0
2017-Sep-20 03:30N 51°02' W 005°05'5 9.1
2017-Sep-20 03:00N 51°05' W 004°60'5 9.3
2017-Sep-20 02:30N 51°08' W 004°54'5 9.5
2017-Sep-20 02:00N 51°12' W 004°49'5 9.4
2017-Sep-20 01:30N 51°15' W 004°43'5 9.9
2017-Sep-20 01:00N 51°16' W 004°35'510.7
2017-Sep-20 00:30N 51°16' W 004°27'611.2
2017-Sep-20 00:00N 51°17' W 004°18'611.8
2017-Sep-19 23:30N 51°18' W 004°08'612.4
2017-Sep-19 23:00N 51°18' W 003°58'814.1
2017-Sep-19 22:24N 51°19' W 003°45'1414.8
2017-Sep-19 21:27N 51°21' W 003°23'613.8
2017-Sep-19 20:59N 51°23' W 003°13'714.0
2017-Sep-19 20:30N 51°26' W 003°04'713.2
2017-Sep-19 20:00N 51°32' W 002°58'2 3.0
2017-Sep-19 19:30N 51°33' W 002°59'0 0.7
2017-Sep-19 18:59N 51°34' W 002°59'0 0.0
2017-Sep-19 18:29N 51°34' W 002°59'0 0.0
2017-Sep-19 17:59N 51°34' W 002°59'0 0.0
2017-Sep-19 17:29N 51°34' W 002°59'0 0.0
2017-Sep-19 16:59N 51°34' W 002°59'0 0.0
2017-Sep-19 16:29N 51°34' W 002°59'0 0.0
2017-Sep-19 15:59N 51°34' W 002°59'0 0.0
2017-Sep-19 15:29N 51°33' W 002°59'0 0.0
2017-Sep-19 14:59N 51°34' W 002°59'0 0.0
2017-Sep-19 14:29N 51°34' W 002°59'0 0.0
2017-Sep-19 13:59N 51°34' W 002°59'0 0.0
2017-Sep-19 13:29N 51°34' W 002°59'0 0.0
2017-Sep-19 12:59N 51°34' W 002°59'0 0.0
2017-Sep-19 12:29N 51°34' W 002°59'0 0.0
2017-Sep-19 11:56N 51°34' W 002°59'0 0.0
2017-Sep-19 11:29N 51°34' W 002°59'0 0.0
2017-Sep-19 10:59N 51°34' W 002°59'0 0.0
2017-Sep-19 10:29N 51°34' W 002°59'0 0.0
2017-Sep-19 09:59N 51°34' W 002°59'0 0.0
2017-Sep-19 09:29N 51°34' W 002°59'0 0.0
2017-Sep-19 08:59N 51°34' W 002°59'0 0.0
2017-Sep-19 08:29N 51°34' W 002°59'0 0.0
2017-Sep-19 07:59N 51°34' W 002°59'0 0.1
2017-Sep-19 07:29N 51°33' W 002°59'0 0.1
2017-Sep-19 06:59N 51°34' W 002°59'0 0.0
2017-Sep-19 06:29N 51°34' W 002°59'0 0.0
2017-Sep-19 05:59N 51°34' W 002°59'0 0.0
2017-Sep-19 05:29N 51°34' W 002°59'0 0.0
2017-Sep-19 04:59N 51°34' W 002°59'0 0.0
2017-Sep-19 04:29N 51°34' W 002°59'0 0.0
2017-Sep-19 03:59N 51°34' W 002°59'0 0.0
2017-Sep-19 03:29N 51°34' W 002°59'0 0.0
2017-Sep-19 02:59N 51°34' W 002°59'0 0.0
2017-Sep-19 02:29N 51°34' W 002°59'0 0.0
2017-Sep-19 01:59N 51°34' W 002°59'0 0.0
2017-Sep-19 01:29N 51°34' W 002°59'0 0.0
2017-Sep-19 00:59N 51°34' W 002°59'0 0.0
2017-Sep-19 00:29N 51°34' W 002°59'0 0.0
2017-Sep-18 23:59N 51°34' W 002°59'0 0.0
2017-Sep-18 23:29N 51°34' W 002°59'0 0.0
2017-Sep-18 22:56N 51°34' W 002°59'0 0.0
2017-Sep-18 22:29N 51°34' W 002°59'0 0.0
2017-Sep-18 21:59N 51°34' W 002°59'0 0.0
2017-Sep-18 21:29N 51°34' W 002°59'0 0.0
2017-Sep-18 20:56N 51°34' W 002°59'0 0.0
2017-Sep-18 20:29N 51°34' W 002°59'0 0.0
2017-Sep-18 19:59N 51°34' W 002°59'0 0.0
2017-Sep-18 19:29N 51°34' W 002°59'0 0.0
2017-Sep-18 18:59N 51°34' W 002°59'0 0.0
2017-Sep-18 18:29N 51°34' W 002°59'0 0.0
2017-Sep-18 17:59N 51°34' W 002°59'0 0.0
2017-Sep-18 17:29N 51°34' W 002°59'0 0.0
2017-Sep-18 16:59N 51°34' W 002°59'0 0.0
2017-Sep-18 16:29N 51°34' W 002°59'0 0.0
2017-Sep-18 15:59N 51°34' W 002°59'0 0.0
2017-Sep-18 15:26N 51°34' W 002°59'0 0.0
2017-Sep-18 14:59N 51°34' W 002°59'0 0.0
2017-Sep-18 14:26N 51°34' W 002°59'0 0.0
2017-Sep-18 13:56N 51°34' W 002°59'0 0.0
2017-Sep-18 13:26N 51°34' W 002°59'0 0.0
2017-Sep-18 12:59N 51°34' W 002°59'0 0.0
2017-Sep-18 12:29N 51°34' W 002°59'0 0.0
2017-Sep-18 11:59N 51°34' W 002°59'0 0.0
2017-Sep-18 11:29N 51°34' W 002°59'0 0.0
2017-Sep-18 10:59N 51°34' W 002°59'0 0.0
2017-Sep-18 10:29N 51°34' W 002°59'0 0.0
2017-Sep-18 09:59N 51°34' W 002°59'0 0.0
2017-Sep-18 09:29N 51°34' W 002°59'0 0.0
2017-Sep-18 08:59N 51°34' W 002°59'0 0.0
2017-Sep-18 08:29N 51°34' W 002°59'0 0.0
2017-Sep-18 07:59N 51°34' W 002°59'0 0.0
2017-Sep-18 07:29N 51°34' W 002°59'0 0.0
2017-Sep-18 06:59N 51°34' W 002°59'0 0.0
2017-Sep-18 06:29N 51°34' W 002°59'0 0.0
2017-Sep-18 05:59N 51°34' W 002°59'0 0.0
2017-Sep-18 05:29N 51°34' W 002°59'0 0.0
2017-Sep-18 04:56N 51°34' W 002°59'0 0.2
2017-Sep-18 04:30N 51°33' W 002°59'0 0.8
2017-Sep-18 04:01N 51°33' W 002°59'1 1.7
2017-Sep-18 03:31N 51°32' W 002°59'4 7.8
2017-Sep-18 03:01N 51°29' W 003°01'611.9
2017-Sep-18 02:30N 51°24' W 003°07'7 5.4
2017-Sep-18 01:09N 51°21' W 003°18'18 7.9
2017-Sep-17 22:51N 51°22' W 003°47'25 9.1
2017-Sep-17 20:07N 51°24' W 004°26'1 8.9
2017-Sep-17 20:00N 51°24' W 004°28'5 8.4
2017-Sep-17 19:24N 51°25' W 004°36'4 8.3
2017-Sep-17 18:57N 51°26' W 004°42'4 8.6
2017-Sep-17 18:30N 51°27' W 004°48'4 8.8
2017-Sep-17 18:01N 51°28' W 004°54'4 8.6
2017-Sep-17 17:31N 51°30' W 005°01'4 8.8
2017-Sep-17 17:01N 51°31' W 005°08'5 9.0
2017-Sep-17 16:30N 51°32' W 005°15'5 9.3
2017-Sep-17 16:01N 51°34' W 005°22'5 9.7
2017-Sep-17 15:31N 51°35' W 005°29'510.0
2017-Sep-17 15:00N 51°36' W 005°37'27 8.2
2017-Sep-17 11:40N 52°03' W 005°45'212.6
2017-Sep-17 11:30N 52°05' W 005°44'612.5
2017-Sep-17 11:00N 52°11' W 005°40'612.3
2017-Sep-17 10:30N 52°17' W 005°37'94 9.0
2017-Sep-17 00:09N 53°33' W 004°07'211.8
2017-Sep-16 23:58N 53°33' W 004°04'511.7
2017-Sep-16 23:30N 53°33' W 003°54'611.8
2017-Sep-16 23:00N 53°33' W 003°45'611.6
2017-Sep-16 22:31N 53°33' W 003°35'611.6
2017-Sep-16 22:00N 53°33' W 003°25'611.1
2017-Sep-16 21:30N 53°31' W 003°16'5 9.8
2017-Sep-16 21:00N 53°31' W 003°08'510.3
2017-Sep-16 20:30N 53°27' W 003°02'5 9.4
2017-Sep-16 20:00N 53°23' W 002°60'4 7.4
2017-Sep-16 19:30N 53°21' W 002°55'0 0.3
2017-Sep-16 19:00N 53°21' W 002°54'0 0.0
2017-Sep-16 18:30N 53°21' W 002°54'0 0.0
2017-Sep-16 18:00N 53°21' W 002°54'0 0.0
2017-Sep-16 17:30N 53°21' W 002°54'0 0.0
2017-Sep-16 17:00N 53°21' W 002°54'0 0.0
2017-Sep-16 16:30N 53°21' W 002°54'0 0.0
2017-Sep-16 16:00N 53°21' W 002°54'0 0.0
2017-Sep-16 15:27N 53°21' W 002°54'0 0.0
2017-Sep-16 14:57N 53°21' W 002°54'0 0.0
2017-Sep-16 14:27N 53°21' W 002°54'0 0.0
2017-Sep-16 14:00N 53°21' W 002°54'0 0.0
2017-Sep-16 13:30N 53°21' W 002°54'0 0.0
2017-Sep-16 12:57N 53°21' W 002°54'0 0.0
2017-Sep-16 12:30N 53°21' W 002°54'0 0.0
2017-Sep-16 12:00N 53°21' W 002°54'0 0.0
2017-Sep-16 11:30N 53°21' W 002°54'0 0.0
2017-Sep-16 11:00N 53°21' W 002°54'0 0.1
2017-Sep-16 10:27N 53°21' W 002°54'0 0.1
2017-Sep-16 09:57N 53°21' W 002°54'0 0.0
2017-Sep-16 09:30N 53°21' W 002°54'0 0.0
2017-Sep-16 09:00N 53°21' W 002°54'0 0.0
2017-Sep-16 08:30N 53°21' W 002°54'0 0.0
2017-Sep-16 08:00N 53°21' W 002°54'0 0.0
2017-Sep-16 07:30N 53°21' W 002°54'0 0.0
2017-Sep-16 07:00N 53°21' W 002°54'0 0.0
2017-Sep-16 06:30N 53°21' W 002°54'0 0.0
2017-Sep-16 05:51N 53°21' W 002°54'0 0.0
2017-Sep-16 05:27N 53°21' W 002°54'0 0.0
2017-Sep-16 05:00N 53°21' W 002°54'0 0.0
2017-Sep-16 04:27N 53°21' W 002°54'0 0.0
2017-Sep-16 03:51N 53°21' W 002°54'0 0.0
2017-Sep-16 03:30N 53°21' W 002°54'0 0.0
2017-Sep-16 03:00N 53°21' W 002°54'0 0.0
2017-Sep-16 02:27N 53°21' W 002°54'0 0.0
2017-Sep-16 02:00N 53°21' W 002°54'0 0.0
2017-Sep-16 01:30N 53°21' W 002°54'0 0.0
2017-Sep-16 01:00N 53°21' W 002°54'0 0.0
2017-Sep-16 00:30N 53°21' W 002°54'0 0.0
2017-Sep-16 00:00N 53°21' W 002°54'0 0.0
2017-Sep-15 23:30N 53°21' W 002°54'0 0.0
2017-Sep-15 23:00N 53°21' W 002°54'0 0.0
2017-Sep-15 22:30N 53°21' W 002°54'0 0.0
2017-Sep-15 21:57N 53°21' W 002°54'0 0.0
2017-Sep-15 21:30N 53°21' W 002°54'0 0.0
2017-Sep-15 21:00N 53°21' W 002°54'0 0.0
2017-Sep-15 20:24N 53°21' W 002°54'0 0.0
2017-Sep-15 20:00N 53°21' W 002°54'0 0.0
2017-Sep-15 19:30N 53°21' W 002°54'0 0.0
2017-Sep-15 19:00N 53°21' W 002°54'0 0.0
2017-Sep-15 18:27N 53°21' W 002°54'0 0.0
2017-Sep-15 17:57N 53°21' W 002°54'0 0.0
2017-Sep-15 17:21N 53°21' W 002°54'0 0.0
2017-Sep-15 17:00N 53°21' W 002°54'0 0.0
2017-Sep-15 16:30N 53°21' W 002°54'0 0.0
2017-Sep-15 16:00N 53°21' W 002°54'0 0.0
2017-Sep-15 15:30N 53°21' W 002°54'0 0.0
2017-Sep-15 15:00N 53°21' W 002°54'0 0.0
2017-Sep-15 14:30N 53°21' W 002°54'0 0.0
2017-Sep-15 13:57N 53°21' W 002°54'0 0.0
2017-Sep-15 13:21N 53°21' W 002°54'0 0.0
2017-Sep-15 13:00N 53°21' W 002°54'0 0.0
2017-Sep-15 12:27N 53°21' W 002°54'0 0.0
2017-Sep-15 11:57N 53°21' W 002°54'0 0.0
2017-Sep-15 11:30N 53°21' W 002°54'0 0.0
2017-Sep-15 10:57N 53°21' W 002°54'0 0.0
2017-Sep-15 10:27N 53°21' W 002°54'0 0.0
2017-Sep-15 10:00N 53°21' W 002°54'0 0.0
2017-Sep-15 09:27N 53°21' W 002°54'0 0.0
2017-Sep-15 08:57N 53°21' W 002°54'0 0.0
2017-Sep-15 08:30N 53°21' W 002°54'0 0.0
2017-Sep-15 08:00N 53°21' W 002°54'0 0.0
2017-Sep-15 07:30N 53°21' W 002°54'0 0.0
2017-Sep-15 06:54N 53°21' W 002°54'0 0.0
2017-Sep-15 06:30N 53°21' W 002°54'0 0.0
2017-Sep-15 06:00N 53°21' W 002°54'0 0.0
2017-Sep-15 05:30N 53°21' W 002°54'0 0.0
2017-Sep-15 05:00N 53°21' W 002°54'0 0.0
2017-Sep-15 04:27N 53°21' W 002°54'0 0.0
2017-Sep-15 04:00N 53°21' W 002°54'0 0.0
2017-Sep-15 03:30N 53°21' W 002°54'0 0.0
2017-Sep-15 03:00N 53°21' W 002°54'0 0.0
2017-Sep-15 02:27N 53°21' W 002°54'0 0.0
2017-Sep-15 02:00N 53°21' W 002°54'0 0.0
2017-Sep-15 01:30N 53°21' W 002°54'0 0.0
2017-Sep-15 01:00N 53°21' W 002°54'0 0.0
2017-Sep-15 00:27N 53°21' W 002°54'0 0.0
2017-Sep-15 00:00N 53°21' W 002°54'0 0.0
2017-Sep-14 23:30N 53°21' W 002°54'0 0.0
2017-Sep-14 23:00N 53°21' W 002°54'0 0.0
2017-Sep-14 22:30N 53°21' W 002°54'0 0.0
2017-Sep-14 21:57N 53°21' W 002°54'0 0.0
2017-Sep-14 21:30N 53°21' W 002°54'0 0.0
2017-Sep-14 20:57N 53°21' W 002°54'0 0.0
2017-Sep-14 20:27N 53°21' W 002°54'0 0.0
2017-Sep-14 20:00N 53°21' W 002°54'0 0.0
2017-Sep-14 19:27N 53°21' W 002°54'0 0.0
2017-Sep-14 19:00N 53°21' W 002°54'0 0.0
2017-Sep-14 18:30N 53°21' W 002°54'0 0.0
2017-Sep-14 18:00N 53°21' W 002°54'1 1.5
2017-Sep-14 17:30N 53°21' W 002°55'3 5.1
2017-Sep-14 17:00N 53°23' W 002°59'1 1.5
2017-Sep-14 16:29N 53°22' W 002°58'0 1.0
2017-Sep-14 16:00N 53°21' W 002°58'2 3.8
2017-Sep-14 15:30N 53°20' W 002°57'1 1.4
2017-Sep-14 15:00N 53°19' W 002°56'3 6.1
2017-Sep-14 14:30N 53°17' W 002°52'3 6.1
2017-Sep-14 14:00N 53°18' W 002°47'3 5.9
2017-Sep-14 13:30N 53°20' W 002°45'0 0.1
2017-Sep-14 12:59N 53°20' W 002°45'0 0.0
2017-Sep-14 12:29N 53°20' W 002°45'0 0.0
2017-Sep-14 11:59N 53°20' W 002°45'0 0.0
2017-Sep-14 11:29N 53°20' W 002°45'0 0.0
2017-Sep-14 10:59N 53°20' W 002°45'0 0.0
2017-Sep-14 10:29N 53°20' W 002°45'0 0.0
2017-Sep-14 09:59N 53°20' W 002°45'0 0.0
2017-Sep-14 09:29N 53°20' W 002°45'0 0.0
2017-Sep-14 08:59N 53°20' W 002°45'0 0.0
2017-Sep-14 08:29N 53°20' W 002°45'0 0.0
2017-Sep-14 07:59N 53°20' W 002°45'0 0.0
2017-Sep-14 07:29N 53°20' W 002°45'0 0.0
2017-Sep-14 06:59N 53°20' W 002°45'0 0.0
2017-Sep-14 06:29N 53°20' W 002°45'0 0.0
2017-Sep-14 05:59N 53°20' W 002°45'0 0.0
2017-Sep-14 05:29N 53°20' W 002°45'0 0.0
2017-Sep-14 04:56N 53°20' W 002°45'0 0.0
2017-Sep-14 04:26N 53°20' W 002°45'0 0.0
2017-Sep-14 03:59N 53°20' W 002°45'0 0.0
2017-Sep-14 03:23N 53°20' W 002°45'0 0.0
2017-Sep-14 02:56N 53°20' W 002°45'0 0.0
2017-Sep-14 02:29N 53°20' W 002°45'0 0.0
2017-Sep-14 01:59N 53°20' W 002°45'0 0.0
2017-Sep-14 01:26N 53°20' W 002°45'0 0.0
2017-Sep-14 00:59N 53°20' W 002°45'0 0.0
2017-Sep-14 00:29N 53°20' W 002°45'0 0.0
2017-Sep-13 23:59N 53°20' W 002°45'0 0.0
2017-Sep-13 23:23N 53°20' W 002°45'0 0.0
2017-Sep-13 22:56N 53°20' W 002°45'0 0.0
2017-Sep-13 22:29N 53°20' W 002°45'0 0.0
2017-Sep-13 21:56N 53°20' W 002°45'0 0.0
2017-Sep-13 21:26N 53°20' W 002°45'0 0.0
2017-Sep-13 20:59N 53°20' W 002°45'0 0.0
2017-Sep-13 20:29N 53°20' W 002°45'0 0.0
2017-Sep-13 19:59N 53°20' W 002°45'0 0.0
2017-Sep-13 19:29N 53°20' W 002°45'0 0.0
2017-Sep-13 18:53N 53°20' W 002°45'0 0.0
2017-Sep-13 18:29N 53°20' W 002°45'0 0.0
2017-Sep-13 17:59N 53°20' W 002°45'0 0.0
2017-Sep-13 17:29N 53°20' W 002°45'0 0.0
2017-Sep-13 16:56N 53°20' W 002°45'0 0.0
2017-Sep-13 16:29N 53°20' W 002°45'0 0.0
2017-Sep-13 15:59N 53°20' W 002°45'0 0.0
2017-Sep-13 15:29N 53°20' W 002°45'0 0.0
2017-Sep-13 14:59N 53°20' W 002°45'0 0.0
2017-Sep-13 14:23N 53°20' W 002°45'0 0.0
2017-Sep-13 13:59N 53°20' W 002°45'0 0.0
2017-Sep-13 13:29N 53°20' W 002°45'0 0.0
2017-Sep-13 12:59N 53°20' W 002°45'0 0.0
2017-Sep-13 12:23N 53°20' W 002°45'0 0.0
2017-Sep-13 11:59N 53°20' W 002°45'0 0.0
2017-Sep-13 11:29N 53°20' W 002°45'0 0.0
2017-Sep-13 10:59N 53°20' W 002°45'0 0.0
2017-Sep-13 10:29N 53°20' W 002°45'0 0.0
2017-Sep-13 09:59N 53°20' W 002°45'0 0.0
2017-Sep-13 09:23N 53°20' W 002°45'0 0.0
2017-Sep-13 08:59N 53°20' W 002°45'0 0.0
2017-Sep-13 08:29N 53°20' W 002°45'0 0.0
2017-Sep-13 07:59N 53°20' W 002°45'0 0.0
2017-Sep-13 07:29N 53°20' W 002°45'0 0.0
2017-Sep-13 06:53N 53°20' W 002°45'0 0.0
2017-Sep-13 06:29N 53°20' W 002°45'0 0.0
2017-Sep-13 05:59N 53°20' W 002°45'0 0.0
2017-Sep-13 05:29N 53°20' W 002°45'0 0.0
2017-Sep-13 04:59N 53°20' W 002°45'0 0.0
2017-Sep-13 04:29N 53°20' W 002°45'0 0.0
2017-Sep-13 03:59N 53°20' W 002°45'0 0.0
2017-Sep-13 03:26N 53°20' W 002°45'0 0.0
2017-Sep-13 02:59N 53°20' W 002°45'0 0.0
2017-Sep-13 02:29N 53°20' W 002°45'0 0.0
2017-Sep-13 01:59N 53°20' W 002°45'0 0.0
2017-Sep-13 01:29N 53°20' W 002°45'0 0.0
2017-Sep-13 00:59N 53°20' W 002°45'0 0.0
2017-Sep-13 00:29N 53°20' W 002°45'0 0.0
2017-Sep-12 23:59N 53°20' W 002°45'0 0.0
2017-Sep-12 23:29N 53°20' W 002°45'0 0.0
2017-Sep-12 22:59N 53°20' W 002°45'0 0.0
2017-Sep-12 22:29N 53°20' W 002°45'0 0.0
2017-Sep-12 21:59N 53°20' W 002°45'0 0.0
2017-Sep-12 21:29N 53°20' W 002°45'0 0.0
2017-Sep-12 20:59N 53°20' W 002°45'0 0.0
2017-Sep-12 20:29N 53°20' W 002°45'0 0.0
2017-Sep-12 19:56N 53°20' W 002°45'0 0.0
2017-Sep-12 19:29N 53°20' W 002°45'0 0.0
2017-Sep-12 18:59N 53°20' W 002°45'0 0.0
2017-Sep-12 18:29N 53°20' W 002°45'0 0.8
2017-Sep-12 18:00N 53°20' W 002°46'3 5.9
2017-Sep-12 17:30N 53°18' W 002°48'3 6.2
2017-Sep-12 17:00N 53°17' W 002°53'3 5.9
2017-Sep-12 16:30N 53°19' W 002°57'1 1.8
2017-Sep-12 16:00N 53°20' W 002°57'4 7.0
2017-Sep-12 15:30N 53°23' W 002°60'5 9.9
2017-Sep-12 15:00N 53°28' W 003°03'510.5
2017-Sep-12 14:31N 53°32' W 003°09'510.8
2017-Sep-12 14:00N 53°31' W 003°18'5 9.6
2017-Sep-12 13:30N 53°31' W 003°26'611.4
2017-Sep-12 13:00N 53°30' W 003°36'612.1
2017-Sep-12 12:30N 53°30' W 003°46'612.3
2017-Sep-12 12:00N 53°29' W 003°56'0 0.2
2017-Sep-12 11:30N 53°29' W 003°56'1 2.0
2017-Sep-12 11:00N 53°29' W 003°54'1 2.2
2017-Sep-12 10:30N 53°29' W 003°53'1 2.8
2017-Sep-12 10:00N 53°29' W 003°50'0 0.8
2017-Sep-12 09:30N 53°29' W 003°51'3 6.3
2017-Sep-12 09:00N 53°29' W 003°56'2 4.8
2017-Sep-12 08:30N 53°28' W 004°00'2 3.1
2017-Sep-12 08:00N 53°28' W 003°57'2 4.1
2017-Sep-12 07:30N 53°29' W 003°54'2 4.2
2017-Sep-12 07:00N 53°29' W 003°51'1 1.9
2017-Sep-12 06:30N 53°30' W 003°49'4 7.3
2017-Sep-12 06:01N 53°29' W 003°55'4 8.8
2017-Sep-12 05:30N 53°29' W 004°03'1 1.8
2017-Sep-12 04:40N 53°28' W 004°05'1 4.7
2017-Sep-12 04:30N 53°28' W 004°04'2 4.5
2017-Sep-12 04:01N 53°28' W 003°60'2 4.3
2017-Sep-12 03:30N 53°29' W 003°56'2 3.9
2017-Sep-12 03:00N 53°29' W 003°53'2 3.5
2017-Sep-12 02:30N 53°29' W 003°50'1 1.8
2017-Sep-12 02:00N 53°30' W 003°50'3 6.9
2017-Sep-12 01:30N 53°30' W 003°55'4 7.5
2017-Sep-12 01:00N 53°30' W 004°02'96 7.2
2017-Sep-11 11:39N 52°12' W 005°35'211.2
2017-Sep-11 11:27N 52°10' W 005°37'511.6
2017-Sep-11 10:59N 52°07' W 005°44'511.4
2017-Sep-11 10:31N 52°03' W 005°50'611.3
2017-Sep-11 10:00N 51°58' W 005°55'510.7
2017-Sep-11 09:29N 51°54' W 006°00'22 3.8
2017-Sep-11 03:42N 51°34' W 005°46'1 4.6
2017-Sep-11 03:30N 51°33' W 005°44'2 4.8
2017-Sep-11 03:00N 51°32' W 005°41'2 5.0
2017-Sep-11 02:30N 51°31' W 005°37'3 5.7
2017-Sep-11 02:01N 51°29' W 005°34'3 6.7
2017-Sep-11 01:30N 51°27' W 005°37'5 9.1
2017-Sep-11 01:00N 51°24' W 005°43'  

Dump ship's entire track history